Aviation Digital Data Service (ADDS)

Output produced by METARs form (2134 UTC 17 November 2018)
found at http://www.aviationweather.gov/metar/data/
 
METAR text: EPRZ 172130Z 03007KT CAVOK M03/M06 Q1034
Conditions at: EPRZ (RZESZOW/JASIONKA, PL) observed 2130 UTC 17 November 2018
Temperature: -3.0°C (27°F)
Dewpoint: -6.0°C (21°F) [RH = 80%]
Pressure (altimeter): 30.53 inches Hg (1034.0 mb)
Winds: from the NNE (30 degrees) at 8 MPH (7 knots; 3.6 m/s)
Visibility: 6 or more miles (10+ km)
Ceiling: ceiling and visibility are OK
Clouds: unknown
Weather: no significant weather observed at this time

METAR text: EPRZ 172100Z 02007KT CAVOK M02/M06 Q1035
Conditions at: EPRZ (RZESZOW/JASIONKA, PL) observed 2100 UTC 17 November 2018
Temperature: -2.0°C (28°F)
Dewpoint: -6.0°C (21°F) [RH = 74%]
Pressure (altimeter): 30.56 inches Hg (1035.0 mb)
Winds: from the NNE (20 degrees) at 8 MPH (7 knots; 3.6 m/s)
Visibility: 6 or more miles (10+ km)
Ceiling: ceiling and visibility are OK
Clouds: unknown
Weather: no significant weather observed at this time

Forecast for: EPRZ (RZESZOW/JASIONKA, PL)
Text: TAF EPRZ 171730Z 1718/1818 08006KT CAVOK
Forecast period: 1800 UTC 17 November 2018 to 1500 UTC 18 November 2018
Forecast type: FROM: standard forecast or significant change
Winds: from the E (80 degrees) at 7 MPH (6 knots; 3.1 m/s)
Visibility: 6 or more miles 10+ km)
Ceiling: unknown
Clouds: missing
Weather: NSW  (no significant weather)
Text: PROB40
Forecast period: 2200 UTC 17 November 2018 to 0900 UTC 18 November 2018
Forecast type: TEMPORARY: The following changes expected for less than half the time period
Visibility: missing
Ceiling: 1000 feet AGL
Clouds: broken clouds at 1000 feet AGL
Weather: no significant weather forecast for this period
Text: TEMPO 1722/1809 BKN010
Forecast period: 1500 to 1800 UTC 18 November 2018
Forecast type: BECOMING: Conditions expected to become as follows by 1700 UTC 18 November 2018
Winds: from the E (80 degrees) at 7 MPH (6 knots; 3.1 m/s)
Visibility: 6 or more miles 10+ km)
Ceiling: 1400 feet AGL
Clouds: broken clouds at 1400 feet AGL
Weather: NSW  (no significant weather)
Text: BECMG 1815/1817 BKN014
Forecast period: 1600 to 1800 UTC 18 November 2018
Forecast type: TEMPORARY: The following changes expected for less than half the time period
Visibility: 1.55 miles (2.49 km)
Ceiling: 800 feet AGL
Clouds: broken clouds at 800 feet AGL
Weather: SN BR  (moderate snow, mist)